Time;durP1;ratioP1;P1;durP2;ratioP2;P2;SDS_P1;SDS_P2;PMS_P1;PMS_P2;Temp;Humidity;BMP_temperature;BMP_pressure;BME280_temperature;BME280_humidity;BME280_pressure;Samples;Min_cycle;Max_cycle;Signal;HPM_P1;HPM_P2
2022/11/21 00:00:31;;;;;;;7.60;7.40;;;7.30;44.20;;;;;;4952549;28;20190;-56
2022/11/21 00:03:00;;;;;;;8.30;8.10;;;7.20;44.40;;;;;;4951068;28;20186;-55
2022/11/21 00:05:30;;;;;;;7.97;7.77;;;7.20;44.30;;;;;;4951363;28;20454;-56
2022/11/21 00:07:56;;;;;;;8.50;8.30;;;7.30;44.50;;;;;;4949746;28;20789;-53
2022/11/21 00:10:23;;;;;;;8.73;8.43;;;7.30;43.90;;;;;;4953836;28;20543;-53
2022/11/21 00:12:56;;;;;;;8.73;8.40;;;7.30;44.10;;;;;;4949029;28;20916;-55
2022/11/21 00:15:23;;;;;;;9.07;8.60;;;7.20;44.20;;;;;;4952237;28;20431;-54
2022/11/21 00:17:49;;;;;;;8.60;8.30;;;7.30;45.00;;;;;;4962205;28;20856;-54
2022/11/21 00:20:15;;;;;;;8.50;8.20;;;7.30;45.30;;;;;;4948499;28;20514;-54
2022/11/21 00:22:41;;;;;;;7.83;7.63;;;7.30;45.40;;;;;;4950778;28;20294;-52
2022/11/21 00:25:07;;;;;;;7.60;7.40;;;7.30;44.10;;;;;;4951257;28;20514;-54
2022/11/21 00:27:32;;;;;;;8.53;8.23;;;7.20;43.80;;;;;;4953696;28;20201;-53
2022/11/21 00:29:58;;;;;;;7.63;7.43;;;7.10;45.70;;;;;;4961264;28;20430;-54
2022/11/21 00:32:24;;;;;;;7.63;7.43;;;7.00;45.70;;;;;;4945371;28;20569;-53
2022/11/21 00:34:49;;;;;;;8.40;8.00;;;7.10;45.90;;;;;;4946546;28;20274;-51
2022/11/21 00:37:15;;;;;;;7.60;7.40;;;7.20;45.30;;;;;;4956212;28;20201;-53
2022/11/21 00:39:41;;;;;;;8.50;8.20;;;7.20;45.40;;;;;;4947855;28;20275;-53
2022/11/21 00:42:06;;;;;;;8.80;8.60;;;7.30;44.10;;;;;;4946220;28;20211;-52
2022/11/21 00:44:32;;;;;;;8.17;7.97;;;7.30;44.80;;;;;;4952572;28;20266;-52
2022/11/21 00:46:58;;;;;;;8.40;8.20;;;7.30;44.50;;;;;;4951010;28;20235;-51
2022/11/21 00:49:23;;;;;;;8.43;8.20;;;7.20;44.70;;;;;;4945609;28;20197;-54
2022/11/21 00:51:49;;;;;;;8.60;8.40;;;7.20;44.60;;;;;;4944689;28;20597;-53
2022/11/21 00:54:14;;;;;;;8.90;8.60;;;7.20;44.40;;;;;;4957261;28;20187;-53
2022/11/21 00:56:40;;;;;;;8.03;7.80;;;7.20;45.20;;;;;;4948463;28;20186;-55
2022/11/21 00:59:06;;;;;;;8.33;8.03;;;7.10;45.10;;;;;;4951869;28;20735;-54
2022/11/21 01:01:31;;;;;;;7.90;7.70;;;7.00;45.60;;;;;;4945069;28;20214;-53
2022/11/21 01:03:58;;;;;;;8.20;7.83;;;7.10;45.50;;;;;;4958488;28;20217;-52
2022/11/21 01:06:23;;;;;;;8.43;8.03;;;7.20;44.70;;;;;;4948299;28;20586;-54
2022/11/21 01:08:49;;;;;;;7.83;7.63;;;7.10;44.60;;;;;;4951290;28;20423;-53
2022/11/21 01:11:17;;;;;;;8.70;8.50;;;7.10;45.00;;;;;;4958730;28;20194;-54
2022/11/21 01:13:44;;;;;;;8.87;8.57;;;7.00;44.40;;;;;;4950334;28;20236;-51
2022/11/21 01:16:19;;;;;;;9.40;9.10;;;7.00;45.20;;;;;;4944370;28;20513;-52
2022/11/21 01:18:46;;;;;;;8.10;7.90;;;7.00;44.60;;;;;;4951850;28;20767;-53
2022/11/21 01:21:21;;;;;;;8.10;7.90;;;6.90;46.00;;;;;;4951927;28;20466;-54
2022/11/21 01:23:47;;;;;;;8.67;8.47;;;7.00;45.90;;;;;;4947438;28;20430;-53
2022/11/21 01:26:19;;;;;;;8.43;8.23;;;6.90;45.60;;;;;;4955985;28;20426;-50
2022/11/21 01:28:45;;;;;;;8.80;8.60;;;6.80;45.60;;;;;;4952694;28;20426;-51
2022/11/21 01:31:13;;;;;;;9.23;8.93;;;6.70;45.90;;;;;;4951655;28;20427;-55
2022/11/21 01:33:39;;;;;;;9.07;8.77;;;6.80;46.70;;;;;;4953553;28;20429;-53
2022/11/21 01:36:07;;;;;;;8.70;8.07;;;6.80;47.20;;;;;;4947438;28;20748;-52
2022/11/21 01:38:33;;;;;;;8.10;7.80;;;6.80;46.70;;;;;;4947294;28;20184;-51
2022/11/21 01:40:58;;;;;;;8.63;8.33;;;6.70;47.50;;;;;;4949585;28;20501;-54
2022/11/21 01:43:24;;;;;;;8.97;8.67;;;6.60;48.50;;;;;;4948414;28;20486;-50
2022/11/21 01:46:07;;;;;;;8.30;8.00;;;6.50;49.50;;;;;;4947299;28;20270;-51
2022/11/21 01:49:00;;;;;;;8.80;8.27;;;6.40;49.40;;;;;;4939229;29;20212;-51
2022/11/21 01:51:35;;;;;;;8.43;8.13;;;6.40;49.50;;;;;;4956266;28;20431;-52
2022/11/21 01:54:07;;;;;;;8.10;7.63;;;6.40;50.80;;;;;;4951547;28;20472;-53
2022/11/21 01:56:49;;;;;;;8.40;8.10;;;6.40;50.50;;;;;;4947818;28;20910;-51
2022/11/21 01:59:25;;;;;;;9.07;8.67;;;6.40;51.50;;;;;;4949147;28;21168;-54
2022/11/21 02:01:53;;;;;;;8.20;7.90;;;6.50;51.80;;;;;;4946234;28;20904;-55
2022/11/21 02:04:20;;;;;;;8.47;8.07;;;6.50;51.10;;;;;;4952192;28;20434;-52
2022/11/21 02:06:46;;;;;;;7.90;7.70;;;6.50;50.80;;;;;;4953004;28;20423;-51
2022/11/21 02:09:11;;;;;;;8.83;8.13;;;6.40;50.10;;;;;;4942896;28;20441;-55
2022/11/21 02:11:49;;;;;;;8.17;7.77;;;6.50;51.60;;;;;;4956437;28;20423;-53
2022/11/21 02:14:15;;;;;;;8.10;7.90;;;6.40;50.50;;;;;;4951553;28;20699;-51
2022/11/21 02:16:41;;;;;;;8.80;8.40;;;6.40;50.60;;;;;;4953269;28;20510;-54
2022/11/21 02:19:28;;;;;;;7.97;7.77;;;6.40;50.80;;;;;;4949313;28;20430;-51
2022/11/21 02:22:23;;;;;;;8.77;8.57;;;6.50;50.70;;;;;;4953106;28;20498;-54
2022/11/21 02:25:08;;;;;;;8.43;8.10;;;6.50;49.80;;;;;;4944872;28;20501;-53
2022/11/21 02:27:34;;;;;;;9.13;8.67;;;6.40;49.60;;;;;;4943873;28;20834;-51
2022/11/21 02:30:05;;;;;;;8.70;8.30;;;6.40;49.70;;;;;;4957611;28;20476;-55
2022/11/21 02:32:36;;;;;;;8.30;8.00;;;6.50;49.90;;;;;;4942269;28;20437;-56
2022/11/21 02:35:03;;;;;;;8.67;8.37;;;6.50;49.50;;;;;;4942983;28;20777;-52
2022/11/21 02:37:30;;;;;;;9.00;8.70;;;6.40;48.50;;;;;;4950899;28;20489;-50
2022/11/21 02:39:59;;;;;;;8.53;8.23;;;6.40;49.40;;;;;;4951893;28;20429;-53
2022/11/21 02:42:42;;;;;;;8.40;8.10;;;6.40;49.40;;;;;;4951119;28;20528;-51
2022/11/21 02:45:22;;;;;;;9.10;8.80;;;6.50;49.50;;;;;;4949799;28;20430;-54
2022/11/21 02:47:51;;;;;;;8.33;8.13;;;6.50;49.50;;;;;;4955275;28;20440;-54
2022/11/21 02:50:31;;;;;;;8.97;8.67;;;6.30;49.40;;;;;;4954695;28;20481;-53
2022/11/21 02:52:57;;;;;;;8.00;7.80;;;6.40;49.40;;;;;;4949492;28;20891;-53
2022/11/21 02:55:24;;;;;;;8.33;8.10;;;6.40;49.40;;;;;;4958953;28;20414;-55
2022/11/21 02:57:50;;;;;;;7.80;7.60;;;6.50;49.50;;;;;;4953617;28;20365;-54
2022/11/21 03:00:16;;;;;;;8.83;8.57;;;6.40;49.00;;;;;;4958684;28;20434;-54
2022/11/21 03:02:42;;;;;;;9.00;8.60;;;6.40;49.40;;;;;;4950153;28;20465;-54
2022/11/21 03:05:09;;;;;;;8.60;8.30;;;6.40;49.40;;;;;;4950497;28;20602;-51
2022/11/21 03:07:35;;;;;;;8.00;7.80;;;6.30;49.30;;;;;;4955133;28;20714;-53
2022/11/21 03:10:01;;;;;;;8.20;8.00;;;6.30;49.30;;;;;;4961326;28;20426;-53
2022/11/21 03:12:27;;;;;;;8.13;7.83;;;6.30;49.30;;;;;;4959154;28;20282;-54
2022/11/21 03:14:52;;;;;;;8.40;8.20;;;6.30;49.30;;;;;;4945591;28;20923;-53
2022/11/21 03:17:18;;;;;;;8.30;7.93;;;6.40;49.20;;;;;;4960861;28;20194;-55
2022/11/21 03:19:44;;;;;;;8.30;8.00;;;6.40;49.40;;;;;;4952539;28;20186;-54
2022/11/21 03:22:11;;;;;;;8.57;8.37;;;6.50;49.50;;;;;;4958591;28;20210;-52
2022/11/21 03:24:37;;;;;;;8.33;8.13;;;6.50;48.10;;;;;;4960378;28;20220;-52
2022/11/21 03:27:02;;;;;;;8.33;8.13;;;6.40;48.30;;;;;;4952667;28;20962;-51
2022/11/21 03:29:28;;;;;;;8.50;8.30;;;6.60;48.00;;;;;;4945581;28;20206;-52
2022/11/21 03:31:54;;;;;;;9.37;9.17;;;6.70;47.60;;;;;;4958907;28;20187;-54
2022/11/21 03:34:19;;;;;;;8.67;8.47;;;6.70;46.60;;;;;;4951638;28;20194;-52
2022/11/21 03:36:45;;;;;;;8.93;8.73;;;6.70;47.80;;;;;;4957143;28;20223;-52
2022/11/21 03:39:11;;;;;;;8.80;8.53;;;6.60;47.10;;;;;;4959879;28;20194;-55
2022/11/21 03:41:36;;;;;;;9.30;9.00;;;6.60;46.80;;;;;;4961815;28;20207;-52
2022/11/21 03:44:05;;;;;;;8.80;8.53;;;6.50;47.20;;;;;;4959189;28;20198;-50
2022/11/21 03:46:34;;;;;;;9.20;9.00;;;6.70;47.50;;;;;;4960470;28;20554;-53
2022/11/21 03:48:59;;;;;;;8.50;8.30;;;6.90;47.20;;;;;;4953346;28;20492;-51
2022/11/21 03:51:25;;;;;;;9.00;8.80;;;6.90;46.20;;;;;;4950632;28;20522;-52
2022/11/21 03:53:51;;;;;;;8.40;8.20;;;7.00;46.20;;;;;;4951662;28;20179;-51
2022/11/21 03:56:17;;;;;;;8.43;8.23;;;6.90;46.20;;;;;;4957184;28;20434;-50
2022/11/21 03:58:43;;;;;;;8.10;7.80;;;7.00;46.80;;;;;;4953182;28;20773;-51
2022/11/21 04:01:09;;;;;;;8.80;8.60;;;7.00;46.10;;;;;;4943712;28;20202;-53
2022/11/21 04:03:35;;;;;;;8.80;8.53;;;7.00;45.80;;;;;;4960076;28;20848;-51
2022/11/21 04:06:00;;;;;;;8.37;8.17;;;7.00;47.00;;;;;;4960229;28;20418;-50
2022/11/21 04:08:26;;;;;;;8.37;8.17;;;7.00;46.20;;;;;;4957808;28;20258;-54
2022/11/21 04:10:53;;;;;;;8.60;8.37;;;7.00;47.30;;;;;;4959354;28;20661;-54
2022/11/21 04:13:19;;;;;;;8.23;7.93;;;7.00;47.00;;;;;;4961766;28;20907;-50
2022/11/21 04:15:45;;;;;;;9.40;8.80;;;7.00;46.80;;;;;;4955058;28;20442;-51
2022/11/21 04:18:12;;;;;;;8.37;8.17;;;6.90;47.40;;;;;;4947709;28;20463;-52
2022/11/21 04:20:38;;;;;;;8.70;8.50;;;7.00;48.30;;;;;;4955041;28;20788;-50
2022/11/21 04:23:05;;;;;;;9.03;8.73;;;7.00;47.80;;;;;;4951515;28;20421;-54
2022/11/21 04:25:31;;;;;;;9.53;9.23;;;7.10;48.40;;;;;;4956819;28;20420;-52
2022/11/21 04:27:58;;;;;;;9.10;8.90;;;7.10;47.50;;;;;;4951868;28;20433;-50
2022/11/21 04:30:23;;;;;;;9.83;9.43;;;7.20;46.50;;;;;;4949327;28;20435;-53
2022/11/21 04:32:53;;;;;;;9.70;9.47;;;7.40;47.30;;;;;;4944868;29;20429;-55
2022/11/21 04:35:19;;;;;;;9.33;9.03;;;7.40;46.10;;;;;;4942888;29;20183;-52
2022/11/21 04:37:45;;;;;;;9.17;8.87;;;7.50;46.80;;;;;;4944892;29;20649;-53
2022/11/21 04:40:11;;;;;;;9.40;9.10;;;7.60;46.80;;;;;;4948191;28;20449;-52
2022/11/21 04:42:40;;;;;;;8.63;8.43;;;7.70;46.50;;;;;;4960593;28;20277;-52
2022/11/21 04:45:07;;;;;;;8.97;8.60;;;7.90;45.00;;;;;;4966122;28;20410;-50
2022/11/21 04:47:35;;;;;;;9.23;8.90;;;7.90;44.00;;;;;;4958927;28;20473;-52
2022/11/21 04:50:01;;;;;;;8.87;8.60;;;8.00;45.10;;;;;;4965856;28;20429;-54
2022/11/21 04:52:27;;;;;;;9.50;9.20;;;8.30;44.70;;;;;;4948664;28;20820;-52
2022/11/21 04:54:52;;;;;;;9.80;9.50;;;8.50;44.60;;;;;;4962346;28;20498;-54
2022/11/21 04:57:18;;;;;;;9.47;9.17;;;8.80;43.00;;;;;;4958631;28;20182;-54
2022/11/21 04:59:43;;;;;;;9.33;8.93;;;8.80;41.60;;;;;;4953260;28;20183;-55
2022/11/21 05:02:10;;;;;;;9.00;8.70;;;8.90;42.40;;;;;;4954521;28;20206;-54
2022/11/21 05:04:35;;;;;;;10.10;9.70;;;9.00;41.80;;;;;;4957768;28;20535;-51
2022/11/21 05:07:01;;;;;;;10.70;10.10;;;9.10;41.40;;;;;;4958207;28;20485;-53
2022/11/21 05:09:27;;;;;;;10.10;9.70;;;9.20;40.80;;;;;;4958595;28;20238;-53
2022/11/21 05:14:36;;;;;;;9.30;9.00;;;9.40;39.80;;;;;;4960101;28;20263;-57
2022/11/21 05:17:02;;;;;;;9.53;9.23;;;9.50;39.60;;;;;;4960271;28;20463;-58
2022/11/21 05:19:27;;;;;;;10.40;10.10;;;9.50;39.30;;;;;;4956729;28;20187;-57
2022/11/21 05:21:53;;;;;;;10.67;10.37;;;9.50;38.70;;;;;;4947386;29;20211;-57
2022/11/21 05:24:18;;;;;;;10.73;10.10;;;9.40;39.60;;;;;;4949691;29;20179;-56
2022/11/21 05:26:44;;;;;;;10.60;10.20;;;9.10;39.60;;;;;;4949015;29;20185;-57
2022/11/21 05:29:11;;;;;;;10.73;10.33;;;8.90;40.80;;;;;;4950027;29;20552;-56
2022/11/21 05:31:38;;;;;;;12.50;11.90;;;8.60;41.40;;;;;;4947116;29;20278;-57
2022/11/21 05:34:03;;;;;;;9.70;9.40;;;8.60;41.40;;;;;;4948452;28;20454;-56
2022/11/21 05:36:29;;;;;;;9.40;9.10;;;8.60;41.40;;;;;;4949090;28;20461;-56
2022/11/21 05:38:54;;;;;;;8.90;8.60;;;8.70;41.90;;;;;;4949493;28;20179;-57
2022/11/21 05:41:20;;;;;;;9.07;8.77;;;8.70;42.20;;;;;;4950226;29;20203;-57
2022/11/21 05:43:46;;;;;;;9.13;8.67;;;8.90;40.60;;;;;;4950797;29;20202;-57
2022/11/21 05:46:19;;;;;;;9.43;9.03;;;8.70;41.50;;;;;;4947323;29;20203;-56
2022/11/21 05:48:46;;;;;;;9.10;8.60;;;8.60;41.40;;;;;;4949892;28;20176;-55
2022/11/21 05:51:12;;;;;;;9.37;8.97;;;8.70;41.50;;;;;;4949500;28;20429;-57
2022/11/21 05:53:38;;;;;;;8.33;8.10;;;8.80;41.60;;;;;;4950739;29;20419;-57
2022/11/21 05:56:06;;;;;;;9.53;9.13;;;8.90;41.10;;;;;;4949560;29;20419;-56
2022/11/21 05:58:32;;;;;;;9.60;9.30;;;8.90;39.70;;;;;;4950765;29;20187;-57
2022/11/21 06:00:58;;;;;;;9.50;9.20;;;8.90;40.50;;;;;;4949896;29;20469;-57
2022/11/21 06:03:29;;;;;;;10.50;10.07;;;8.60;41.30;;;;;;4950787;28;20408;-57
2022/11/21 06:06:02;;;;;;;10.20;9.90;;;8.40;41.20;;;;;;4950030;29;20419;-57
2022/11/21 06:08:32;;;;;;;10.50;9.90;;;8.30;42.00;;;;;;4951354;28;20426;-56
2022/11/21 06:10:58;;;;;;;9.80;9.50;;;8.50;42.60;;;;;;4958164;28;20433;-56
2022/11/21 06:13:24;;;;;;;10.00;9.50;;;8.50;41.70;;;;;;4966419;28;20923;-57
2022/11/21 06:15:57;;;;;;;24.50;22.80;;;8.60;41.40;;;;;;4968948;28;20210;-57
2022/11/21 06:18:22;;;;;;;9.60;9.20;;;8.40;41.80;;;;;;4972154;28;20225;-56
2022/11/21 06:20:48;;;;;;;9.40;9.00;;;8.30;41.50;;;;;;4971512;28;20469;-57
2022/11/21 06:23:14;;;;;;;10.00;9.70;;;8.40;42.70;;;;;;4966055;28;20177;-57
2022/11/21 06:25:40;;;;;;;9.63;9.33;;;8.60;42.90;;;;;;4961648;28;20419;-57
2022/11/21 06:28:06;;;;;;;10.00;9.50;;;8.80;42.30;;;;;;4969727;28;20190;-57
2022/11/21 06:30:32;;;;;;;9.97;9.57;;;8.70;41.00;;;;;;4982987;28;20417;-55
2022/11/21 06:32:58;;;;;;;9.93;9.53;;;8.70;41.50;;;;;;4989985;28;20221;-57
2022/11/21 06:35:23;;;;;;;10.20;9.80;;;8.60;41.40;;;;;;4982976;28;20516;-57
2022/11/21 06:37:49;;;;;;;10.17;9.73;;;8.60;41.40;;;;;;4955258;28;20307;-54
2022/11/21 06:40:15;;;;;;;9.83;9.43;;;8.40;41.20;;;;;;4935954;29;20198;-52
2022/11/21 06:42:40;;;;;;;9.53;9.17;;;8.40;42.20;;;;;;4952543;29;20233;-54
2022/11/21 06:45:06;;;;;;;10.10;9.80;;;8.40;42.30;;;;;;4959883;28;20647;-54
2022/11/21 06:47:35;;;;;;;9.90;9.40;;;8.50;42.60;;;;;;4970510;28;20188;-52
2022/11/21 06:50:01;;;;;;;11.07;10.47;;;8.40;43.40;;;;;;4968477;28;20425;-51
2022/11/21 06:52:26;;;;;;;11.03;10.63;;;8.20;43.80;;;;;;4969748;28;20418;-53
2022/11/21 06:54:52;;;;;;;10.00;9.70;;;8.10;44.60;;;;;;4970915;28;20659;-53
2022/11/21 06:57:17;;;;;;;10.40;9.97;;;8.00;44.50;;;;;;4970764;28;20257;-52
2022/11/21 06:59:43;;;;;;;11.00;10.60;;;8.20;45.20;;;;;;4974747;28;20178;-52
2022/11/21 07:02:12;;;;;;;12.80;12.03;;;8.50;44.50;;;;;;4989578;28;20316;-54
2022/11/21 07:04:38;;;;;;;11.00;10.43;;;8.50;43.30;;;;;;4990772;28;20241;-54
2022/11/21 07:07:04;;;;;;;11.10;10.70;;;8.40;43.00;;;;;;4979804;28;20887;-51
2022/11/21 07:09:32;;;;;;;10.80;10.40;;;8.20;43.60;;;;;;4969144;28;20848;-51
2022/11/21 07:13:20;;;;;;;10.90;10.50;;;8.20;43.80;;;;;;4969990;28;20514;-54
2022/11/21 07:14:44;;;;;;;10.00;9.60;;;8.40;43.70;;;;;;4971800;28;20433;-54
2022/11/21 07:17:11;;;;;;;10.40;10.00;;;8.40;43.00;;;;;;4969328;28;20425;-51
2022/11/21 07:19:36;;;;;;;11.40;10.80;;;8.40;42.40;;;;;;4969697;28;20214;-56
2022/11/21 07:22:02;;;;;;;9.70;9.40;;;8.50;43.00;;;;;;4969876;28;21020;-52
2022/11/21 07:24:28;;;;;;;9.40;8.90;;;8.40;42.30;;;;;;4970499;28;20175;-50
2022/11/21 07:26:54;;;;;;;10.53;10.13;;;8.50;42.10;;;;;;4972452;28;20915;-54
2022/11/21 07:29:19;;;;;;;11.10;10.60;;;8.40;41.70;;;;;;4973921;28;20178;-50
2022/11/21 07:31:45;;;;;;;10.00;9.50;;;8.40;41.20;;;;;;4973455;28;20182;-51
2022/11/21 07:34:10;;;;;;;10.77;10.27;;;8.10;41.80;;;;;;4973074;28;20277;-53
2022/11/21 07:36:36;;;;;;;10.23;9.73;;;7.90;43.60;;;;;;4973865;28;20205;-53
2022/11/21 07:39:02;;;;;;;11.13;10.43;;;7.90;43.60;;;;;;4971014;28;20182;-50
2022/11/21 07:41:27;;;;;;;10.30;9.53;;;7.80;43.60;;;;;;4972649;28;20198;-49
2022/11/21 07:43:53;;;;;;;10.67;10.27;;;7.80;43.20;;;;;;4973024;28;20245;-50
2022/11/21 07:46:19;;;;;;;10.53;10.03;;;7.60;43.50;;;;;;4972766;28;20206;-50
2022/11/21 07:48:44;;;;;;;9.77;9.47;;;7.50;44.90;;;;;;4971820;28;20262;-50
2022/11/21 07:51:10;;;;;;;11.53;11.03;;;7.50;44.20;;;;;;4971517;28;20179;-53
2022/11/21 07:53:36;;;;;;;11.00;10.50;;;7.50;44.40;;;;;;4971941;28;20179;-54
2022/11/21 07:56:02;;;;;;;9.70;9.40;;;7.70;43.90;;;;;;4971532;28;20196;-54
2022/11/21 07:58:28;;;;;;;10.30;9.90;;;7.50;42.80;;;;;;4962422;28;20419;-52
2022/11/21 08:00:53;;;;;;;10.10;9.60;;;7.30;44.40;;;;;;4959059;28;20713;-50
2022/11/21 08:03:19;;;;;;;10.17;9.77;;;7.40;45.60;;;;;;4958151;28;20234;-52
2022/11/21 08:05:45;;;;;;;9.60;9.20;;;7.50;45.70;;;;;;4974120;28;20205;-51
2022/11/21 08:08:12;;;;;;;9.67;9.27;;;7.70;44.00;;;;;;4976900;28;20181;-52
2022/11/21 08:10:40;;;;;;;9.97;9.67;;;7.80;44.10;;;;;;4990569;28;20224;-50
2022/11/21 08:13:05;;;;;;;10.10;9.70;;;7.60;43.70;;;;;;4993722;28;20421;-53
2022/11/21 08:15:31;;;;;;;10.47;10.07;;;7.50;44.20;;;;;;4993337;28;20428;-50
2022/11/21 08:17:57;;;;;;;9.83;9.37;;;7.50;44.50;;;;;;4992498;28;20186;-51
2022/11/21 08:20:22;;;;;;;9.50;9.10;;;7.70;44.70;;;;;;4990867;28;20424;-50
2022/11/21 08:22:48;;;;;;;10.30;9.83;;;7.90;44.10;;;;;;4990513;28;20210;-50
2022/11/21 08:25:14;;;;;;;10.90;10.40;;;8.00;42.30;;;;;;4975198;28;20177;-50
2022/11/21 08:27:41;;;;;;;11.10;10.50;;;8.10;42.90;;;;;;4988097;28;20343;-56
2022/11/21 08:30:09;;;;;;;9.83;9.23;;;8.10;42.30;;;;;;4971113;28;20638;-58
2022/11/21 08:32:35;;;;;;;10.07;9.23;;;8.20;42.30;;;;;;4960175;28;20426;-49
2022/11/21 08:35:01;;;;;;;9.73;9.33;;;8.40;41.30;;;;;;4962035;28;20433;-50
2022/11/21 08:37:30;;;;;;;10.20;9.40;;;8.40;41.30;;;;;;4952429;28;20245;-52
2022/11/21 08:39:59;;;;;;;10.83;10.40;;;8.60;41.40;;;;;;4952367;29;20412;-54
2022/11/21 08:42:25;;;;;;;10.17;9.77;;;8.60;40.60;;;;;;4950646;29;20482;-50
2022/11/21 08:44:51;;;;;;;11.27;10.57;;;8.40;40.50;;;;;;4951366;29;20422;-49
2022/11/21 08:47:17;;;;;;;10.43;10.03;;;8.40;41.20;;;;;;4949962;29;20819;-51
2022/11/21 08:49:42;;;;;;;10.77;10.27;;;8.50;40.80;;;;;;4950904;29;20214;-52
2022/11/21 08:52:08;;;;;;;10.57;9.93;;;8.50;40.20;;;;;;4950889;28;20446;-53
2022/11/21 08:54:34;;;;;;;10.33;9.63;;;8.70;40.60;;;;;;4954116;28;20266;-52
2022/11/21 08:56:59;;;;;;;10.17;9.60;;;8.90;40.50;;;;;;4951729;29;20183;-53
2022/11/21 08:59:25;;;;;;;10.20;9.63;;;9.00;40.50;;;;;;4951901;28;20647;-48
2022/11/21 09:01:51;;;;;;;11.10;10.60;;;9.20;40.90;;;;;;4952459;29;20599;-50
2022/11/21 09:04:17;;;;;;;9.47;9.07;;;9.30;39.40;;;;;;4953034;29;20536;-52
2022/11/21 09:06:43;;;;;;;9.90;9.40;;;9.30;38.90;;;;;;4951401;29;20423;-51
2022/11/21 09:09:08;;;;;;;10.90;10.30;;;9.30;38.10;;;;;;4951677;29;20186;-52
2022/11/21 09:11:35;;;;;;;10.77;10.17;;;9.10;39.00;;;;;;4953088;29;20540;-54
2022/11/21 09:19:29;;;;;;;9.83;9.30;;;9.00;38.30;;;;;;4954078;29;20414;-51
2022/11/21 09:21:54;;;;;;;10.67;9.97;;;8.90;39.50;;;;;;4952810;28;20470;-49
2022/11/21 09:24:20;;;;;;;9.83;9.43;;;9.10;39.60;;;;;;4952815;29;20225;-50
2022/11/21 09:26:46;;;;;;;9.67;9.17;;;9.10;39.00;;;;;;4951249;29;20171;-53
2022/11/21 09:29:16;;;;;;;10.80;10.20;;;9.20;38.30;;;;;;4953520;28;20548;-53
2022/11/21 09:31:42;;;;;;;9.93;9.50;;;9.20;38.40;;;;;;4952991;29;20194;-55
2022/11/21 09:34:08;;;;;;;10.03;9.53;;;9.40;38.80;;;;;;4951285;29;20935;-54
2022/11/21 09:36:34;;;;;;;10.37;9.97;;;9.40;37.60;;;;;;4951769;28;20519;-55
2022/11/21 09:39:00;;;;;;;11.13;10.50;;;9.40;37.40;;;;;;4952761;29;20942;-50
2022/11/21 09:41:52;;;;;;;10.50;9.80;;;9.40;36.80;;;;;;4951447;28;20207;-50
2022/11/21 09:44:23;;;;;;;10.93;10.23;;;9.40;35.90;;;;;;4953294;28;20426;-52
2022/11/21 09:46:54;;;;;;;10.30;9.80;;;9.20;36.00;;;;;;4951933;28;20531;-50
2022/11/21 09:49:24;;;;;;;10.27;9.47;;;9.20;36.10;;;;;;4953469;28;20954;-54
2022/11/21 09:51:51;;;;;;;8.87;8.47;;;9.10;36.60;;;;;;4952732;29;20786;-50
2022/11/21 09:54:45;;;;;;;9.87;9.37;;;9.20;35.10;;;;;;4953122;29;20983;-52
2022/11/21 09:57:20;;;;;;;9.67;8.97;;;9.20;35.40;;;;;;4953180;28;20411;-51
2022/11/21 09:59:46;;;;;;;9.57;9.07;;;9.30;35.40;;;;;;4952379;29;20422;-50
2022/11/21 10:02:18;;;;;;;10.10;9.50;;;9.10;34.20;;;;;;4952350;29;20975;-51
2022/11/21 10:04:45;;;;;;;9.60;9.10;;;9.20;35.60;;;;;;4952974;29;20796;-52
2022/11/21 10:07:31;;;;;;;9.80;9.20;;;9.20;34.10;;;;;;4951564;29;20419;-54
2022/11/21 10:10:18;;;;;;;9.10;8.70;;;9.20;34.90;;;;;;4950751;28;20450;-51
2022/11/21 10:12:49;;;;;;;10.07;9.57;;;9.20;34.10;;;;;;4952183;29;20419;-52
2022/11/21 10:15:58;;;;;;;9.00;8.60;;;9.30;34.90;;;;;;4952075;28;20437;-54
2022/11/21 10:18:59;;;;;;;9.60;8.97;;;9.20;34.80;;;;;;4951926;29;20411;-52
2022/11/21 10:21:44;;;;;;;9.83;9.33;;;9.30;34.80;;;;;;4953575;28;20829;-54
2022/11/21 10:24:24;;;;;;;8.40;8.00;;;9.40;34.70;;;;;;4953924;29;20908;-50
2022/11/21 10:27:01;;;;;;;8.77;8.23;;;9.30;33.10;;;;;;4966791;28;20418;-50
2022/11/21 10:29:41;;;;;;;9.47;8.90;;;9.30;34.40;;;;;;4952563;29;20835;-52
2022/11/21 10:32:22;;;;;;;8.77;8.30;;;9.40;33.30;;;;;;4951368;29;20418;-49
2022/11/21 10:34:49;;;;;;;8.93;8.43;;;9.50;34.10;;;;;;4952751;29;20454;-50
2022/11/21 10:37:26;;;;;;;9.00;8.57;;;9.60;33.30;;;;;;4952396;29;20470;-52
2022/11/21 10:39:54;;;;;;;9.97;9.37;;;9.80;32.30;;;;;;4952234;29;20513;-50
2022/11/21 10:42:39;;;;;;;8.50;8.03;;;9.90;32.80;;;;;;4951673;29;20470;-50
2022/11/21 10:45:17;;;;;;;9.10;8.50;;;9.80;32.40;;;;;;4952017;29;20892;-53
2022/11/21 10:47:44;;;;;;;9.53;9.10;;;9.80;33.30;;;;;;4950966;29;20514;-53
2022/11/21 10:50:48;;;;;;;9.40;8.83;;;9.70;33.00;;;;;;4952000;29;20782;-50
2022/11/21 10:56:14;;;;;;;9.80;9.10;;;9.60;34.10;;;;;;4953509;29;20414;-53
2022/11/21 10:58:49;;;;;;;10.30;9.53;;;9.80;34.30;;;;;;4951926;28;20791;-53
2022/11/21 11:01:32;;;;;;;10.87;9.97;;;9.90;32.30;;;;;;4951552;28;20466;-52
2022/11/21 11:04:05;;;;;;;9.93;9.43;;;9.90;32.10;;;;;;4956007;29;20966;-50
2022/11/21 11:06:31;;;;;;;10.80;10.10;;;9.90;31.90;;;;;;4960302;28;20423;-52
2022/11/21 11:08:57;;;;;;;9.80;9.20;;;9.90;32.70;;;;;;4965119;28;20430;-51
2022/11/21 11:11:25;;;;;;;10.30;9.63;;;9.80;32.30;;;;;;4964018;28;20258;-51
2022/11/21 11:13:54;;;;;;;9.70;9.20;;;9.70;32.80;;;;;;4955005;29;20224;-50
2022/11/21 11:16:21;;;;;;;9.87;9.27;;;9.70;32.60;;;;;;4955969;29;20433;-52
2022/11/21 11:19:12;;;;;;;10.27;9.77;;;9.80;32.90;;;;;;4963157;28;20513;-51
2022/11/21 11:21:38;;;;;;;9.87;9.37;;;9.90;32.30;;;;;;4957702;28;20469;-56
2022/11/21 11:24:10;;;;;;;9.80;9.30;;;10.00;29.30;;;;;;4965207;28;20425;-50
2022/11/21 11:26:48;;;;;;;11.13;10.47;;;9.90;29.70;;;;;;4972855;28;20269;-52
2022/11/21 11:29:26;;;;;;;10.33;9.83;;;9.90;30.80;;;;;;4974482;28;20965;-50
2022/11/21 11:31:56;;;;;;;9.40;8.90;;;9.90;31.00;;;;;;4973740;28;20429;-53
2022/11/21 11:34:24;;;;;;;9.97;9.27;;;9.80;27.90;;;;;;4973567;28;20430;-50
2022/11/21 11:37:17;;;;;;;9.97;9.47;;;9.70;28.90;;;;;;4974084;28;20905;-51
2022/11/21 11:40:15;;;;;;;9.03;8.57;;;9.70;29.00;;;;;;4973470;28;20424;-53
2022/11/21 11:48:39;;;;;;;10.07;9.50;;;9.70;28.90;;;;;;4974738;28;20465;-51
2022/11/21 11:51:21;;;;;;;8.87;8.47;;;9.80;28.50;;;;;;4973052;28;20464;-51
2022/11/21 11:53:55;;;;;;;8.93;8.53;;;9.90;28.60;;;;;;4974690;28;20452;-53
2022/11/21 11:56:28;;;;;;;10.17;9.30;;;10.00;27.40;;;;;;4973801;28;20429;-53
2022/11/21 11:59:12;;;;;;;9.60;9.10;;;10.10;27.00;;;;;;4974610;28;20427;-52
2022/11/21 12:01:41;;;;;;;9.97;8.90;;;10.00;27.00;;;;;;4973374;28;20465;-52
2022/11/21 12:04:14;;;;;;;10.40;9.60;;;10.10;26.40;;;;;;4974382;28;20418;-51
2022/11/21 12:06:54;;;;;;;10.10;9.40;;;10.10;27.00;;;;;;4974444;28;20517;-49
2022/11/21 12:09:30;;;;;;;9.70;9.27;;;10.10;27.00;;;;;;4973454;28;20453;-53
2022/11/21 12:12:08;;;;;;;9.87;9.17;;;10.20;27.00;;;;;;4969423;28;20422;-53
2022/11/21 12:18:12;;;;;;;9.80;9.40;;;10.10;27.10;;;;;;4974912;28;20409;-50
2022/11/21 12:20:56;;;;;;;9.43;8.83;;;10.20;27.50;;;;;;4948648;28;20520;-52
2022/11/21 12:23:26;;;;;;;9.30;8.90;;;10.20;26.30;;;;;;4969987;28;20425;-55
2022/11/21 12:26:16;;;;;;;9.83;9.23;;;10.20;26.70;;;;;;4971369;28;20445;-52
2022/11/21 12:29:22;;;;;;;10.50;10.00;;;10.20;26.70;;;;;;4972182;28;20414;-54
2022/11/21 12:32:09;;;;;;;9.60;9.00;;;10.20;26.90;;;;;;4968785;28;20406;-52
2022/11/21 12:34:58;;;;;;;10.17;9.67;;;10.10;27.20;;;;;;4972621;28;20751;-54
2022/11/21 12:38:17;;;;;;;10.33;9.90;;;10.10;27.30;;;;;;4973036;28;20422;-54
2022/11/21 12:44:30;;;;;;;9.37;8.97;;;10.30;27.30;;;;;;4965184;28;20526;-54
2022/11/21 12:47:18;;;;;;;10.20;9.63;;;10.30;27.30;;;;;;4956616;28;20789;-53
2022/11/21 12:56:56;;;;;;;11.13;10.33;;;10.40;26.90;;;;;;4913842;29;20494;-51
2022/11/21 12:59:24;;;;;;;10.60;10.00;;;10.60;27.50;;;;;;4956957;28;20437;-51
2022/11/21 13:02:45;;;;;;;10.30;9.80;;;10.70;25.70;;;;;;4972382;28;20464;-51
2022/11/21 13:05:17;;;;;;;10.10;9.47;;;10.70;26.30;;;;;;4913856;28;20422;-50
2022/11/21 13:07:44;;;;;;;10.03;9.53;;;10.80;25.20;;;;;;4964047;28;20962;-51
2022/11/21 13:10:14;;;;;;;9.93;9.43;;;11.00;24.80;;;;;;4960014;28;20869;-54
2022/11/21 13:13:11;;;;;;;9.77;9.17;;;11.10;24.70;;;;;;4970425;28;20505;-50
2022/11/21 13:15:47;;;;;;;9.43;8.93;;;11.30;25.40;;;;;;4966170;28;20470;-53
2022/11/21 13:18:23;;;;;;;10.03;9.53;;;11.20;24.00;;;;;;4960404;28;20433;-51
2022/11/21 13:20:51;;;;;;;10.33;9.73;;;11.10;23.90;;;;;;4958817;28;20422;-53
2022/11/21 13:23:36;;;;;;;8.30;8.00;;;11.00;24.50;;;;;;4961482;28;20425;-54
2022/11/21 13:26:25;;;;;;;9.50;9.03;;;10.80;24.00;;;;;;4961676;28;20791;-50
2022/11/21 13:29:06;;;;;;;10.20;9.67;;;10.70;24.70;;;;;;4963015;28;20509;-50
2022/11/21 13:31:35;;;;;;;10.33;9.70;;;10.70;25.10;;;;;;4961804;28;20422;-49
2022/11/21 13:34:02;;;;;;;10.53;9.80;;;10.70;25.10;;;;;;4962567;28;20411;-51
2022/11/21 13:36:28;;;;;;;10.13;9.63;;;10.80;24.80;;;;;;4960071;28;20415;-50